Historyczne dane pomiarowe

Dodano dane terminowe – wersja testowa.

Dane z okresu 1951-2019

Wersja bazy: 1.34 [2019-03-16, lista zmian], aktualizacja planowana na 2019-04-15

Dane meteo z obszaru Polski uzyskane na podstawie danych udostępnionych przez Instytut Meteorologii i Gospodarki Wodnej – Państwowy Instytut Badawczy.

 

Wybierz Datę:    

       

TemperaturaWilgotnośćWiatrCiśnienieOpadyŚniegCzas trwania zjawisk
 Stacja t tx tn tng RH VA  wxwx mslp ppp RRR   cm mm wxwxwxwxwxwxwx
1994-08-14 15.2 20.2 11.1- 78.3- 6.7 1.0---- 0.0------------
1994-08-13 17.1 20.7 14.8- 92.8- 7.3 0.7---- 30.0------------
1994-08-12 17.4 20.8 14.3- 91.5- 7.7 1.7---- 0.2------------
1994-08-11 19.6 27.9 14.8- 84.8- 6.0 4.7---- 23.5------------
1994-08-10 20.2 26.3 16.1- 82.5- 2.3 1.3---- 0.3------------
1994-08-09 20.7 30.0 15.9- 85.5- 7.3 1.3---- 3.5------------
1994-08-08 21.7 30.5 17.4- 80.8- 7.0 1.3---- 14.0------------
1994-08-07 21.2 28.9 14.2- 82.3- 7.7 1.0---- 0.0------------
1994-08-06 22.7 31.8 11.9- 70.5- 8.0 1.7---- 0.0------------
1994-08-05 21.7 30.0 14.3- 74.3- 1.3 1.7---- 0.0------------
1994-08-04 21.2 28.9 16.6- 84.8- 3.3 1.0---- 0.0------------
1994-08-03 22.3 30.5 16.9- 80.8- 2.0 1.3---- 4.5------------
1994-08-02 23.7 33.2 13.6- 64.8- 0.0 1.3---- 0.0------------
1994-08-01 24.8 33.2 15.3- 69.3- 2.7 1.3---- 0.0------------
1994-07-31 23.9 33.0 14.6- 71.8- 0.3 2.3---- 0.0------------
1994-07-30 23.6 32.5 13.3- 68.0- 0.3 1.7---- 0.0------------
1994-07-29 23.1 32.5 12.2- 64.0- 0.7 1.7---- 0.0------------
1994-07-28 23.1 32.0 13.2- 61.0- 0.3 2.0---- 0.0------------
1994-07-27 22.9 31.7 13.1- 65.3- 1.3 2.0---- 0.0------------
1994-07-26 22.7 32.0 12.0- 63.8- 0.7 2.0---- 0.0------------
1994-07-25 22.7 31.0 11.6- 60.3- 1.7 1.0---- 0.0------------
1994-07-24 20.6 29.4 11.2- 68.3- 1.0 1.7---- 0.0------------
1994-07-23 20.0 28.1 9.4- 67.3- 1.3 1.7---- 0.0------------
1994-07-22 19.3 27.1 8.4- 68.8- 4.0 2.3---- 0.0------------
1994-07-21 18.1 26.1 8.4- 72.0- 0.3 1.7---- 0.0------------
1994-07-20 19.5 24.1 11.5- 66.5- 2.0 1.0---- 0.0------------
1994-07-19 19.6 25.1 13.8- 79.8- 7.0 1.3---- 0.0------------
1994-07-18 19.8 26.1 16.8- 88.3- 6.0 1.3---- 0.0------------
1994-07-17 22.4 29.3 14.7- 77.8- 6.0 1.0---- 4.0------------
1994-07-16 22.1 30.6 13.1- 75.0- 2.7 2.0---- 0.0------------
1994-07-15 21.1 28.1 13.3- 77.0- 4.0 1.7---- 0.0------------
1994-07-14 20.5 27.9 10.8- 75.5- 4.0 1.3---- 0.0------------
1994-07-13 20.0 26.7 11.4- 77.5- 4.0 1.7---- 0.0------------
1994-07-12 20.8 26.3 15.3- 74.3- 4.7 2.3---- 0.0------------
1994-07-11 16.3 20.6 11.0- 94.3- 7.3 2.0---- 0.0------------
1994-07-10 15.8 20.7 10.9- 91.3- 6.7 1.3---- 0.4------------
1994-07-09 13.6 20.7 9.7- 95.8- 7.3 2.3---- 3.0------------
1994-07-08 17.2 22.5 15.0- 86.3- 6.3 1.7---- 0.3------------
1994-07-07 18.9 26.6 9.9- 70.5- 5.3 2.0---- 2.0------------
1994-07-06 19.0 24.5 10.7- 72.0- 1.7 1.7---- 0.0------------
1994-07-05 19.2 27.1 10.7- 78.8- 4.7 1.3---- 0.0------------
1994-07-04 19.0 27.0 8.7- 73.8- 0.7 0.7---- 0.0------------
1994-07-03 17.8 25.8 7.4- 75.8- 0.3 0.7---- 0.0------------
1994-07-02 17.6 23.9 7.9- 76.8- 0.7 1.7---- 0.0------------
1994-07-01 20.2 23.0 17.4- 74.3- 2.7 2.3---- 0.0------------
1994-06-30 23.1 29.3 16.4- 88.5- 3.0 1.7---- 0.0------------
1994-06-29 23.6 30.5 14.8- 78.3- 0.3 1.0---- 0.0------------
1994-06-28 23.2 29.5 16.9- 82.8- 1.7 1.7---- 0.0------------
1994-06-27 23.6 30.5 14.5- 74.8- 3.0 1.0---- 0.0------------
1994-06-26 19.3 27.1 8.1- 68.0- 0.3 3.0---- 0.0------------
1994-06-25 14.5 22.2 3.2- 73.0- 0.0 0.7---- 0.0------------
1994-06-24 13.6 19.8 4.3- 68.8- 0.3 3.3---- 0.0------------
1994-06-23 18.2 22.0 15.9- 67.3- 4.7 6.3---- 0.0------------
1994-06-22 17.7 26.1 6.5- 75.3- 3.7 1.3---- 0.0------------
1994-06-21 14.8 20.2 5.6- 78.5- 1.7 2.0---- 0.0------------
1994-06-20 17.2 20.5 11.0- 82.8- 3.0 2.3---- 0.0------------
1994-06-19 16.0 22.7 10.7- 87.5- 5.0 2.0---- 0.0------------
1994-06-18 11.5 18.5 2.2- 76.3- 5.3 2.0---- 5.0------------
1994-06-17 11.2 15.0 7.4- 82.5- 6.3 3.3---- 0.0------------
1994-06-16 13.2 18.7 4.7- 83.0- 5.0 2.0---- 2.0------------
205.7 ms

 

Źródłem pochodzenia danych jest Instytut Meteorologii i Gospodarki Wodnej – Państwowy Instytut Badawczy. Dane Instytutu Meteorologii i Gospodarki Wodnej – Państwowego Instytutu Badawczego zostały przetworzone.

Dane źródłowe można odnaleźć na stronie https://dane.imgw.pl